sensor_id;sensor_type;location;lat;lon;timestamp;pressure;altitude;pressure_sealevel;temperature;humidity
29121;BME280;16191;49.548;8.658;2022-08-30T00:02:08;100594.78;;;20.91;43.31
29121;BME280;16191;49.548;8.658;2022-08-30T00:04:36;100585.25;;;21.00;43.17
29121;BME280;16191;49.548;8.658;2022-08-30T00:07:03;100585.84;;;20.92;43.29
29121;BME280;16191;49.548;8.658;2022-08-30T00:09:31;100585.84;;;20.92;43.38
29121;BME280;16191;49.548;8.658;2022-08-30T00:11:57;100592.47;;;20.86;43.39
29121;BME280;16191;49.548;8.658;2022-08-30T00:14:48;100592.63;;;20.96;43.28
29121;BME280;16191;49.548;8.658;2022-08-30T00:17:35;100594.78;;;20.91;43.48
29121;BME280;16191;49.548;8.658;2022-08-30T00:20:26;100588.97;;;20.86;43.24
29121;BME280;16191;49.548;8.658;2022-08-30T00:23:13;100590.56;;;20.77;43.54
29121;BME280;16191;49.548;8.658;2022-08-30T00:26:00;100582.22;;;20.82;43.60
29121;BME280;16191;49.548;8.658;2022-08-30T00:28:47;100588.75;;;20.78;43.73
29121;BME280;16191;49.548;8.658;2022-08-30T00:31:14;100594.06;;;20.78;43.82
29121;BME280;16191;49.548;8.658;2022-08-30T00:33:41;100592.81;;;20.82;43.77
29121;BME280;16191;49.548;8.658;2022-08-30T00:36:08;100596.19;;;20.84;43.60
29121;BME280;16191;49.548;8.658;2022-08-30T00:38:35;100591.63;;;20.86;43.61
29121;BME280;16191;49.548;8.658;2022-08-30T00:41:02;100597.66;;;20.77;43.92
29121;BME280;16191;49.548;8.658;2022-08-30T00:43:30;100592.72;;;20.72;43.95
29121;BME280;16191;49.548;8.658;2022-08-30T00:46:02;100592.81;;;20.71;44.22
29121;BME280;16191;49.548;8.658;2022-08-30T00:48:31;100595.59;;;20.69;44.09
29121;BME280;16191;49.548;8.658;2022-08-30T00:51:01;100598.38;;;20.68;44.40
29121;BME280;16191;49.548;8.658;2022-08-30T00:53:32;100598.38;;;20.68;44.14
29121;BME280;16191;49.548;8.658;2022-08-30T00:55:59;100604.16;;;20.73;44.16
29121;BME280;16191;49.548;8.658;2022-08-30T00:58:30;100608.75;;;20.71;44.24
29121;BME280;16191;49.548;8.658;2022-08-30T01:00:59;100612.34;;;20.70;44.61
29121;BME280;16191;49.548;8.658;2022-08-30T01:03:27;100619.56;;;20.68;44.88
29121;BME280;16191;49.548;8.658;2022-08-30T01:05:56;100613.91;;;20.61;45.12
29121;BME280;16191;49.548;8.658;2022-08-30T01:08:26;100619.19;;;20.61;45.28
29121;BME280;16191;49.548;8.658;2022-08-30T01:10:53;100611.34;;;20.60;45.46
29121;BME280;16191;49.548;8.658;2022-08-30T01:13:24;100615.81;;;20.59;45.31
29121;BME280;16191;49.548;8.658;2022-08-30T01:15:52;100607.41;;;20.65;45.12
29121;BME280;16191;49.548;8.658;2022-08-30T01:18:22;100614.00;;;20.60;45.11
29121;BME280;16191;49.548;8.658;2022-08-30T01:21:30;100609.19;;;20.53;45.44
29121;BME280;16191;49.548;8.658;2022-08-30T01:23:59;100615.69;;;20.49;45.46
29121;BME280;16191;49.548;8.658;2022-08-30T01:26:28;100622.53;;;20.41;45.86
29121;BME280;16191;49.548;8.658;2022-08-30T01:29:01;100622.97;;;20.35;45.98
29121;BME280;16191;49.548;8.658;2022-08-30T01:31:28;100623.09;;;20.33;46.48
29121;BME280;16191;49.548;8.658;2022-08-30T01:33:55;100618.97;;;20.29;46.50
29121;BME280;16191;49.548;8.658;2022-08-30T01:36:23;100615.38;;;20.30;46.29
29121;BME280;16191;49.548;8.658;2022-08-30T01:38:53;100618.91;;;20.18;46.77
29121;BME280;16191;49.548;8.658;2022-08-30T01:43:50;100605.41;;;20.10;47.37
29121;BME280;16191;49.548;8.658;2022-08-30T01:46:19;100604.06;;;20.04;47.49
29121;BME280;16191;49.548;8.658;2022-08-30T01:48:46;100612.63;;;20.08;47.60
29121;BME280;16191;49.548;8.658;2022-08-30T01:51:20;100615.06;;;20.11;47.47
29121;BME280;16191;49.548;8.658;2022-08-30T01:53:47;100619.03;;;20.16;47.50
29121;BME280;16191;49.548;8.658;2022-08-30T01:56:13;100613.81;;;20.04;47.71
29121;BME280;16191;49.548;8.658;2022-08-30T01:58:41;100606.44;;;19.96;47.90
29121;BME280;16191;49.548;8.658;2022-08-30T02:01:12;100602.31;;;19.92;48.09
29121;BME280;16191;49.548;8.658;2022-08-30T02:03:41;100592.94;;;19.88;48.25
29121;BME280;16191;49.548;8.658;2022-08-30T02:06:12;100598.44;;;19.85;48.46
29121;BME280;16191;49.548;8.658;2022-08-30T02:08:40;100597.41;;;19.75;49.09
29121;BME280;16191;49.548;8.658;2022-08-30T02:11:11;100593.66;;;19.66;49.56
29121;BME280;16191;49.548;8.658;2022-08-30T02:13:39;100604.25;;;19.66;49.43
29121;BME280;16191;49.548;8.658;2022-08-30T02:16:09;100600.03;;;19.64;49.60
29121;BME280;16191;49.548;8.658;2022-08-30T02:18:37;100609.66;;;19.65;49.68
29121;BME280;16191;49.548;8.658;2022-08-30T02:21:08;100610.28;;;19.68;49.49
29121;BME280;16191;49.548;8.658;2022-08-30T02:23:35;100613.09;;;19.78;48.84
29121;BME280;16191;49.548;8.658;2022-08-30T02:26:03;100616.88;;;19.87;48.78
29121;BME280;16191;49.548;8.658;2022-08-30T02:28:30;100608.31;;;19.83;48.87
29121;BME280;16191;49.548;8.658;2022-08-30T02:30:58;100609.88;;;19.85;49.27
29121;BME280;16191;49.548;8.658;2022-08-30T02:33:25;100608.94;;;19.87;49.23
29121;BME280;16191;49.548;8.658;2022-08-30T02:35:52;100608.75;;;19.77;49.43
29121;BME280;16191;49.548;8.658;2022-08-30T02:38:19;100601.94;;;19.85;49.35
29121;BME280;16191;49.548;8.658;2022-08-30T02:40:46;100607.97;;;19.88;48.92
29121;BME280;16191;49.548;8.658;2022-08-30T02:43:13;100605.75;;;19.81;49.19
29121;BME280;16191;49.548;8.658;2022-08-30T02:45:40;100599.63;;;19.81;49.21
29121;BME280;16191;49.548;8.658;2022-08-30T02:48:07;100603.97;;;19.82;49.64
29121;BME280;16191;49.548;8.658;2022-08-30T02:50:39;100603.19;;;19.69;49.95
29121;BME280;16191;49.548;8.658;2022-08-30T02:53:06;100597.59;;;19.61;50.24
29121;BME280;16191;49.548;8.658;2022-08-30T02:55:34;100590.19;;;19.53;50.35
29121;BME280;16191;49.548;8.658;2022-08-30T02:58:01;100596.03;;;19.45;50.85
29121;BME280;16191;49.548;8.658;2022-08-30T03:00:28;100579.72;;;19.51;50.74
29121;BME280;16191;49.548;8.658;2022-08-30T03:02:55;100575.94;;;19.43;51.27
29121;BME280;16191;49.548;8.658;2022-08-30T03:05:22;100583.56;;;19.35;51.73
29121;BME280;16191;49.548;8.658;2022-08-30T03:07:49;100588.53;;;19.39;51.50
29121;BME280;16191;49.548;8.658;2022-08-30T03:10:17;100594.94;;;19.24;52.36
29121;BME280;16191;49.548;8.658;2022-08-30T03:12:44;100596.00;;;19.22;52.32
29121;BME280;16191;49.548;8.658;2022-08-30T03:15:11;100596.09;;;19.20;52.50
29121;BME280;16191;49.548;8.658;2022-08-30T03:17:40;100593.13;;;19.25;52.43
29121;BME280;16191;49.548;8.658;2022-08-30T03:20:07;100584.88;;;19.16;52.87
29121;BME280;16191;49.548;8.658;2022-08-30T03:22:35;100580.84;;;19.24;52.88
29121;BME280;16191;49.548;8.658;2022-08-30T03:25:03;100578.84;;;19.14;53.37
29121;BME280;16191;49.548;8.658;2022-08-30T03:27:30;100587.25;;;18.96;53.89
29121;BME280;16191;49.548;8.658;2022-08-30T03:29:57;100582.88;;;19.07;53.66
29121;BME280;16191;49.548;8.658;2022-08-30T03:32:24;100580.47;;;19.04;53.57
29121;BME280;16191;49.548;8.658;2022-08-30T03:34:50;100581.94;;;18.96;54.33
29121;BME280;16191;49.548;8.658;2022-08-30T03:37:17;100575.72;;;18.97;54.31
29121;BME280;16191;49.548;8.658;2022-08-30T03:39:51;100574.34;;;19.04;54.05
29121;BME280;16191;49.548;8.658;2022-08-30T03:42:18;100572.34;;;18.82;55.25
29121;BME280;16191;49.548;8.658;2022-08-30T03:44:47;100573.06;;;18.84;55.24
29121;BME280;16191;49.548;8.658;2022-08-30T03:47:14;100575.72;;;18.71;55.54
29121;BME280;16191;49.548;8.658;2022-08-30T03:49:41;100578.81;;;18.78;55.31
29121;BME280;16191;49.548;8.658;2022-08-30T03:52:08;100576.25;;;18.64;56.15
29121;BME280;16191;49.548;8.658;2022-08-30T03:54:35;100574.25;;;18.67;56.12
29121;BME280;16191;49.548;8.658;2022-08-30T03:57:03;100574.69;;;18.61;56.65
29121;BME280;16191;49.548;8.658;2022-08-30T03:59:30;100581.72;;;18.48;57.22
29121;BME280;16191;49.548;8.658;2022-08-30T04:01:57;100579.50;;;18.55;56.93
29121;BME280;16191;49.548;8.658;2022-08-30T04:04:24;100575.47;;;18.49;57.42
29121;BME280;16191;49.548;8.658;2022-08-30T04:06:51;100583.19;;;18.52;56.95
29121;BME280;16191;49.548;8.658;2022-08-30T04:09:18;100575.03;;;18.42;57.90
29121;BME280;16191;49.548;8.658;2022-08-30T04:11:45;100578.13;;;18.36;58.13
29121;BME280;16191;49.548;8.658;2022-08-30T04:14:12;100579.81;;;18.37;58.22
29121;BME280;16191;49.548;8.658;2022-08-30T04:16:39;100577.19;;;18.37;58.55
29121;BME280;16191;49.548;8.658;2022-08-30T04:19:06;100580.13;;;18.33;58.81
29121;BME280;16191;49.548;8.658;2022-08-30T04:21:33;100578.72;;;18.27;58.75
29121;BME280;16191;49.548;8.658;2022-08-30T04:24:08;100572.19;;;18.33;58.77
29121;BME280;16191;49.548;8.658;2022-08-30T04:26:35;100585.63;;;18.42;58.00
29121;BME280;16191;49.548;8.658;2022-08-30T04:29:02;100592.59;;;18.43;57.60
29121;BME280;16191;49.548;8.658;2022-08-30T04:31:29;100591.75;;;18.43;58.02
29121;BME280;16191;49.548;8.658;2022-08-30T04:33:56;100589.81;;;18.20;59.03
29121;BME280;16191;49.548;8.658;2022-08-30T04:36:23;100590.38;;;17.98;59.93
29121;BME280;16191;49.548;8.658;2022-08-30T04:38:50;100589.81;;;17.80;61.26
29121;BME280;16191;49.548;8.658;2022-08-30T04:41:18;100596.97;;;17.78;61.62
29121;BME280;16191;49.548;8.658;2022-08-30T04:43:47;100600.31;;;17.67;62.40
29121;BME280;16191;49.548;8.658;2022-08-30T04:46:17;100594.44;;;17.76;61.93
29121;BME280;16191;49.548;8.658;2022-08-30T04:48:45;100595.91;;;17.68;62.12
29121;BME280;16191;49.548;8.658;2022-08-30T04:51:15;100600.63;;;17.34;63.71
29121;BME280;16191;49.548;8.658;2022-08-30T04:53:44;100606.22;;;17.30;64.15
29121;BME280;16191;49.548;8.658;2022-08-30T04:56:13;100597.00;;;17.23;64.84
29121;BME280;16191;49.548;8.658;2022-08-30T04:58:44;100608.41;;;17.23;64.97
29121;BME280;16191;49.548;8.658;2022-08-30T05:01:16;100614.88;;;17.18;65.78
29121;BME280;16191;49.548;8.658;2022-08-30T05:03:48;100611.03;;;17.23;65.87
29121;BME280;16191;49.548;8.658;2022-08-30T05:06:16;100622.59;;;17.35;65.78
29121;BME280;16191;49.548;8.658;2022-08-30T05:08:43;100622.50;;;17.36;65.94
29121;BME280;16191;49.548;8.658;2022-08-30T05:11:13;100626.72;;;17.39;66.17
29121;BME280;16191;49.548;8.658;2022-08-30T05:13:41;100628.34;;;17.41;65.51
29121;BME280;16191;49.548;8.658;2022-08-30T05:16:08;100628.09;;;17.32;65.57
29121;BME280;16191;49.548;8.658;2022-08-30T05:18:36;100622.25;;;17.27;65.68
29121;BME280;16191;49.548;8.658;2022-08-30T05:23:30;100629.13;;;17.29;65.08
29121;BME280;16191;49.548;8.658;2022-08-30T05:25:57;100627.09;;;17.33;64.83
29121;BME280;16191;49.548;8.658;2022-08-30T05:28:24;100627.00;;;17.34;65.37
29121;BME280;16191;49.548;8.658;2022-08-30T05:30:51;100633.03;;;17.36;65.57
29121;BME280;16191;49.548;8.658;2022-08-30T05:33:18;100640.69;;;17.41;65.15
29121;BME280;16191;49.548;8.658;2022-08-30T05:35:45;100641.63;;;17.40;65.29
29121;BME280;16191;49.548;8.658;2022-08-30T05:38:12;100637.28;;;17.39;65.54
29121;BME280;16191;49.548;8.658;2022-08-30T05:40:41;100638.78;;;17.43;65.94
29121;BME280;16191;49.548;8.658;2022-08-30T05:43:09;100639.53;;;17.45;65.64
29121;BME280;16191;49.548;8.658;2022-08-30T05:45:36;100643.88;;;17.46;65.86
29121;BME280;16191;49.548;8.658;2022-08-30T05:48:03;100643.50;;;17.52;65.92
29121;BME280;16191;49.548;8.658;2022-08-30T05:50:30;100652.34;;;17.51;65.84
29121;BME280;16191;49.548;8.658;2022-08-30T05:53:05;100647.00;;;17.53;65.89
29121;BME280;16191;49.548;8.658;2022-08-30T05:55:32;100645.81;;;17.57;65.54
29121;BME280;16191;49.548;8.658;2022-08-30T05:57:59;100644.22;;;17.54;66.14
29121;BME280;16191;49.548;8.658;2022-08-30T06:00:26;100639.69;;;17.56;66.42
29121;BME280;16191;49.548;8.658;2022-08-30T06:02:55;100635.09;;;17.60;66.33
29121;BME280;16191;49.548;8.658;2022-08-30T06:05:22;100638.31;;;17.65;66.11
29121;BME280;16191;49.548;8.658;2022-08-30T06:07:49;100633.03;;;17.65;66.84
29121;BME280;16191;49.548;8.658;2022-08-30T06:10:15;100631.50;;;17.75;66.40
29121;BME280;16191;49.548;8.658;2022-08-30T06:12:42;100626.34;;;17.73;66.50
29121;BME280;16191;49.548;8.658;2022-08-30T06:15:10;100628.97;;;17.73;66.57
29121;BME280;16191;49.548;8.658;2022-08-30T06:17:37;100620.81;;;17.76;66.53
29121;BME280;16191;49.548;8.658;2022-08-30T06:20:05;100621.56;;;17.78;66.45
29121;BME280;16191;49.548;8.658;2022-08-30T06:22:32;100621.47;;;17.80;67.01
29121;BME280;16191;49.548;8.658;2022-08-30T06:24:58;100622.69;;;17.89;66.61
29121;BME280;16191;49.548;8.658;2022-08-30T06:27:25;100621.94;;;17.87;66.90
29121;BME280;16191;49.548;8.658;2022-08-30T06:29:52;100635.88;;;17.89;67.43
29121;BME280;16191;49.548;8.658;2022-08-30T06:32:18;100637.19;;;17.96;67.30
29121;BME280;16191;49.548;8.658;2022-08-30T06:34:45;100630.53;;;18.03;66.65
29121;BME280;16191;49.548;8.658;2022-08-30T06:37:14;100632.41;;;18.15;66.08
29121;BME280;16191;49.548;8.658;2022-08-30T06:39:57;100637.13;;;18.10;65.94
29121;BME280;16191;49.548;8.658;2022-08-30T06:42:24;100639.88;;;18.08;66.33
29121;BME280;16191;49.548;8.658;2022-08-30T06:45:02;100641.19;;;18.28;65.92
29121;BME280;16191;49.548;8.658;2022-08-30T06:47:37;100641.53;;;18.36;65.78
29121;BME280;16191;49.548;8.658;2022-08-30T06:50:05;100639.19;;;18.32;65.67
29121;BME280;16191;49.548;8.658;2022-08-30T06:52:38;100634.34;;;18.38;65.24
29121;BME280;16191;49.548;8.658;2022-08-30T06:55:05;100643.13;;;18.39;65.11
29121;BME280;16191;49.548;8.658;2022-08-30T06:57:32;100641.19;;;18.41;65.81
29121;BME280;16191;49.548;8.658;2022-08-30T06:59:59;100637.47;;;18.70;64.38
29121;BME280;16191;49.548;8.658;2022-08-30T07:02:27;100641.72;;;18.73;64.18
29121;BME280;16191;49.548;8.658;2022-08-30T07:04:54;100637.69;;;18.93;64.22
29121;BME280;16191;49.548;8.658;2022-08-30T07:07:21;100643.50;;;19.10;62.61
29121;BME280;16191;49.548;8.658;2022-08-30T07:09:48;100642.84;;;19.32;61.74
29121;BME280;16191;49.548;8.658;2022-08-30T07:12:15;100643.66;;;19.45;60.87
29121;BME280;16191;49.548;8.658;2022-08-30T07:14:42;100641.13;;;19.57;60.92
29121;BME280;16191;49.548;8.658;2022-08-30T07:17:10;100640.19;;;19.81;60.55
29121;BME280;16191;49.548;8.658;2022-08-30T07:20:01;100644.19;;;19.87;59.72
29121;BME280;16191;49.548;8.658;2022-08-30T07:22:28;100651.13;;;20.01;59.02
29121;BME280;16191;49.548;8.658;2022-08-30T07:24:55;100649.63;;;20.09;58.79
29121;BME280;16191;49.548;8.658;2022-08-30T07:27:21;100650.72;;;20.18;58.00
29121;BME280;16191;49.548;8.658;2022-08-30T07:29:48;100649.66;;;20.20;57.62
29121;BME280;16191;49.548;8.658;2022-08-30T07:32:15;100655.06;;;20.43;57.34
29121;BME280;16191;49.548;8.658;2022-08-30T07:34:43;100651.84;;;20.50;56.14
29121;BME280;16191;49.548;8.658;2022-08-30T07:37:09;100659.63;;;20.87;56.02
29121;BME280;16191;49.548;8.658;2022-08-30T07:39:43;100652.16;;;20.92;54.51
29121;BME280;16191;49.548;8.658;2022-08-30T07:42:14;100663.53;;;21.28;54.29
29121;BME280;16191;49.548;8.658;2022-08-30T07:44:41;100663.22;;;21.21;53.03
29121;BME280;16191;49.548;8.658;2022-08-30T07:47:09;100663.16;;;21.10;52.91
29121;BME280;16191;49.548;8.658;2022-08-30T07:49:36;100658.25;;;21.39;52.74
29121;BME280;16191;49.548;8.658;2022-08-30T07:52:03;100667.59;;;21.65;51.96
29121;BME280;16191;49.548;8.658;2022-08-30T07:54:30;100663.25;;;21.75;50.57
29121;BME280;16191;49.548;8.658;2022-08-30T07:56:57;100660.84;;;21.72;51.79
29121;BME280;16191;49.548;8.658;2022-08-30T07:59:24;100657.47;;;21.70;51.72
29121;BME280;16191;49.548;8.658;2022-08-30T08:01:50;100659.75;;;21.86;50.65
29121;BME280;16191;49.548;8.658;2022-08-30T08:04:17;100659.03;;;21.84;51.41
29121;BME280;16191;49.548;8.658;2022-08-30T08:06:45;100652.97;;;22.04;50.82
29121;BME280;16191;49.548;8.658;2022-08-30T08:09:12;100649.63;;;22.23;49.46
29121;BME280;16191;49.548;8.658;2022-08-30T08:11:39;100650.50;;;22.44;50.44
29121;BME280;16191;49.548;8.658;2022-08-30T08:14:07;100654.84;;;22.87;48.58
29121;BME280;16191;49.548;8.658;2022-08-30T08:16:35;100645.59;;;23.12;47.74
29121;BME280;16191;49.548;8.658;2022-08-30T08:19:03;100653.00;;;23.08;47.47
29121;BME280;16191;49.548;8.658;2022-08-30T08:21:35;100654.91;;;22.97;47.46
29121;BME280;16191;49.548;8.658;2022-08-30T08:24:02;100650.88;;;23.33;46.68
29121;BME280;16191;49.548;8.658;2022-08-30T08:26:29;100652.69;;;23.32;46.41
29121;BME280;16191;49.548;8.658;2022-08-30T08:28:56;100636.59;;;23.43;46.56
29121;BME280;16191;49.548;8.658;2022-08-30T08:31:25;100640.75;;;23.57;46.33
29121;BME280;16191;49.548;8.658;2022-08-30T08:34:00;100642.56;;;23.66;45.18
29121;BME280;16191;49.548;8.658;2022-08-30T08:36:33;100642.03;;;23.72;45.78
29121;BME280;16191;49.548;8.658;2022-08-30T08:39:02;100641.06;;;23.73;45.34
29121;BME280;16191;49.548;8.658;2022-08-30T08:47:13;100638.72;;;23.99;44.94
29121;BME280;16191;49.548;8.658;2022-08-30T08:49:44;100632.28;;;24.02;44.84
29121;BME280;16191;49.548;8.658;2022-08-30T08:52:18;100632.66;;;24.07;44.59
29121;BME280;16191;49.548;8.658;2022-08-30T08:55:09;100630.59;;;24.20;44.46
29121;BME280;16191;49.548;8.658;2022-08-30T08:57:37;100631.00;;;24.54;43.30
29121;BME280;16191;49.548;8.658;2022-08-30T09:00:07;100628.50;;;24.43;43.60
29121;BME280;16191;49.548;8.658;2022-08-30T09:02:44;100635.88;;;24.78;43.57
29121;BME280;16191;49.548;8.658;2022-08-30T09:05:16;100634.63;;;24.63;43.25
29121;BME280;16191;49.548;8.658;2022-08-30T09:07:49;100633.41;;;24.94;42.47
29121;BME280;16191;49.548;8.658;2022-08-30T09:10:19;100636.59;;;25.17;41.83
29121;BME280;16191;49.548;8.658;2022-08-30T09:13:06;100622.59;;;25.70;41.02
29121;BME280;16191;49.548;8.658;2022-08-30T09:15:39;100633.97;;;25.62;40.74
29121;BME280;16191;49.548;8.658;2022-08-30T09:18:07;100617.09;;;26.07;40.06
29121;BME280;16191;49.548;8.658;2022-08-30T09:20:49;100612.84;;;26.32;39.52
29121;BME280;16191;49.548;8.658;2022-08-30T09:23:25;100607.28;;;26.51;39.71
29121;BME280;16191;49.548;8.658;2022-08-30T09:26:00;100615.66;;;26.30;39.58
29121;BME280;16191;49.548;8.658;2022-08-30T09:28:33;100606.75;;;26.47;39.92
29121;BME280;16191;49.548;8.658;2022-08-30T09:31:06;100602.13;;;27.09;39.04
29121;BME280;16191;49.548;8.658;2022-08-30T09:33:37;100594.16;;;26.91;38.90
29121;BME280;16191;49.548;8.658;2022-08-30T09:36:27;100594.34;;;27.24;38.28
29121;BME280;16191;49.548;8.658;2022-08-30T09:39:03;100600.09;;;26.77;39.06
29121;BME280;16191;49.548;8.658;2022-08-30T09:41:40;100596.09;;;27.07;38.78
29121;BME280;16191;49.548;8.658;2022-08-30T09:44:10;100592.19;;;27.36;38.26
29121;BME280;16191;49.548;8.658;2022-08-30T09:46:54;100599.78;;;27.56;37.37
29121;BME280;16191;49.548;8.658;2022-08-30T09:52:11;100589.63;;;27.60;37.54
29121;BME280;16191;49.548;8.658;2022-08-30T09:57:50;100574.22;;;27.94;35.80
29121;BME280;16191;49.548;8.658;2022-08-30T10:00:22;100571.22;;;28.46;35.80
29121;BME280;16191;49.548;8.658;2022-08-30T10:03:15;100575.06;;;28.19;35.50
29121;BME280;16191;49.548;8.658;2022-08-30T10:11:51;100561.31;;;29.18;34.59
29121;BME280;16191;49.548;8.658;2022-08-30T10:14:50;100549.44;;;29.66;33.75
29121;BME280;16191;49.548;8.658;2022-08-30T10:23:11;100549.66;;;29.88;32.78
29121;BME280;16191;49.548;8.658;2022-08-30T10:25:43;100541.19;;;29.68;32.55
29121;BME280;16191;49.548;8.658;2022-08-30T10:28:33;100536.59;;;30.37;31.42
29121;BME280;16191;49.548;8.658;2022-08-30T10:31:11;100539.59;;;30.05;31.75
29121;BME280;16191;49.548;8.658;2022-08-30T10:33:52;100529.97;;;30.62;31.47
29121;BME280;16191;49.548;8.658;2022-08-30T10:36:26;100535.28;;;30.71;31.01
29121;BME280;16191;49.548;8.658;2022-08-30T10:38:57;100531.25;;;30.81;30.74
29121;BME280;16191;49.548;8.658;2022-08-30T10:41:32;100534.41;;;30.55;30.65
29121;BME280;16191;49.548;8.658;2022-08-30T10:44:10;100529.06;;;31.35;29.33
29121;BME280;16191;49.548;8.658;2022-08-30T10:46:58;100523.72;;;31.78;29.24
29121;BME280;16191;49.548;8.658;2022-08-30T10:49:36;100523.91;;;31.77;29.17
29121;BME280;16191;49.548;8.658;2022-08-30T10:52:16;100526.38;;;31.57;29.66
29121;BME280;16191;49.548;8.658;2022-08-30T10:54:52;100524.16;;;31.82;29.66
29121;BME280;16191;49.548;8.658;2022-08-30T10:57:19;100531.63;;;32.08;29.71
29121;BME280;16191;49.548;8.658;2022-08-30T11:00:00;100522.75;;;32.14;28.66
29121;BME280;16191;49.548;8.658;2022-08-30T11:13:26;100524.97;;;32.25;28.75
29121;BME280;16191;49.548;8.658;2022-08-30T11:18:28;100520.44;;;32.11;27.94
29121;BME280;16191;49.548;8.658;2022-08-30T11:21:39;100519.50;;;32.46;27.33
29121;BME280;16191;49.548;8.658;2022-08-30T11:32:17;100518.19;;;34.38;25.34
29121;BME280;16191;49.548;8.658;2022-08-30T11:37:41;100512.09;;;33.70;25.48
29121;BME280;16191;49.548;8.658;2022-08-30T11:42:48;100512.47;;;33.34;26.31
29121;BME280;16191;49.548;8.658;2022-08-30T11:48:05;100499.59;;;34.55;26.05
29121;BME280;16191;49.548;8.658;2022-08-30T11:50:55;100501.94;;;34.31;25.38
29121;BME280;16191;49.548;8.658;2022-08-30T11:53:42;100502.56;;;34.33;25.18
29121;BME280;16191;49.548;8.658;2022-08-30T11:56:20;100502.31;;;35.51;24.04
29121;BME280;16191;49.548;8.658;2022-08-30T11:59:06;100497.13;;;35.74;23.74
29121;BME280;16191;49.548;8.658;2022-08-30T12:01:37;100497.00;;;34.86;24.54
29121;BME280;16191;49.548;8.658;2022-08-30T12:06:50;100496.81;;;34.75;25.03
29121;BME280;16191;49.548;8.658;2022-08-30T12:17:47;100488.22;;;34.91;24.35
29121;BME280;16191;49.548;8.658;2022-08-30T12:20:46;100486.44;;;35.10;24.22
29121;BME280;16191;49.548;8.658;2022-08-30T12:23:18;100482.47;;;34.61;24.35
29121;BME280;16191;49.548;8.658;2022-08-30T12:25:46;100481.25;;;34.44;24.65
29121;BME280;16191;49.548;8.658;2022-08-30T12:28:20;100479.59;;;35.07;24.43
29121;BME280;16191;49.548;8.658;2022-08-30T12:30:48;100475.19;;;35.51;24.13
29121;BME280;16191;49.548;8.658;2022-08-30T12:33:25;100481.56;;;34.87;24.93
29121;BME280;16191;49.548;8.658;2022-08-30T12:35:55;100485.16;;;34.81;24.44
29121;BME280;16191;49.548;8.658;2022-08-30T12:38:25;100478.00;;;34.86;24.21
29121;BME280;16191;49.548;8.658;2022-08-30T12:40:56;100484.72;;;34.77;24.15
29121;BME280;16191;49.548;8.658;2022-08-30T12:43:31;100480.34;;;34.69;23.69
29121;BME280;16191;49.548;8.658;2022-08-30T12:46:10;100474.66;;;34.91;23.72
29121;BME280;16191;49.548;8.658;2022-08-30T12:48:41;100474.66;;;34.91;23.65
29121;BME280;16191;49.548;8.658;2022-08-30T12:51:28;100466.75;;;33.85;25.12
29121;BME280;16191;49.548;8.658;2022-08-30T12:54:19;100470.25;;;34.05;25.43
29121;BME280;16191;49.548;8.658;2022-08-30T13:02:09;100463.38;;;33.70;24.98
29121;BME280;16191;49.548;8.658;2022-08-30T13:04:47;100462.97;;;34.06;25.18
29121;BME280;16191;49.548;8.658;2022-08-30T13:07:32;100459.25;;;33.81;25.25
29121;BME280;16191;49.548;8.658;2022-08-30T13:10:19;100456.09;;;33.44;25.49
29121;BME280;16191;49.548;8.658;2022-08-30T13:13:04;100447.78;;;33.79;25.82
29121;BME280;16191;49.548;8.658;2022-08-30T13:15:34;100453.47;;;33.03;26.06
29121;BME280;16191;49.548;8.658;2022-08-30T13:18:25;100450.69;;;33.64;25.32
29121;BME280;16191;49.548;8.658;2022-08-30T13:23:46;100438.69;;;34.64;24.10
29121;BME280;16191;49.548;8.658;2022-08-30T13:26:14;100440.75;;;33.78;25.61
29121;BME280;16191;49.548;8.658;2022-08-30T13:28:57;100438.59;;;34.19;25.08
29121;BME280;16191;49.548;8.658;2022-08-30T13:31:26;100435.00;;;34.96;24.24
29121;BME280;16191;49.548;8.658;2022-08-30T13:33:53;100433.78;;;34.41;24.36
29121;BME280;16191;49.548;8.658;2022-08-30T13:36:27;100430.25;;;34.21;24.47
29121;BME280;16191;49.548;8.658;2022-08-30T13:38:55;100429.66;;;34.77;23.83
29121;BME280;16191;49.548;8.658;2022-08-30T13:41:23;100426.16;;;35.46;23.44
29121;BME280;16191;49.548;8.658;2022-08-30T13:43:56;100420.50;;;35.97;22.50
29121;BME280;16191;49.548;8.658;2022-08-30T13:46:42;100420.59;;;36.63;21.92
29121;BME280;16191;49.548;8.658;2022-08-30T13:49:18;100426.41;;;37.15;21.04
29121;BME280;16191;49.548;8.658;2022-08-30T13:52:07;100417.84;;;36.33;21.66
29121;BME280;16191;49.548;8.658;2022-08-30T13:54:50;100409.91;;;37.28;21.86
29121;BME280;16191;49.548;8.658;2022-08-30T13:57:19;100406.72;;;37.20;21.35
29121;BME280;16191;49.548;8.658;2022-08-30T14:00:11;100398.91;;;37.23;21.58
29121;BME280;16191;49.548;8.658;2022-08-30T14:02:41;100408.06;;;37.64;21.24
29121;BME280;16191;49.548;8.658;2022-08-30T14:05:15;100402.53;;;36.87;21.78
29121;BME280;16191;49.548;8.658;2022-08-30T14:08:03;100404.50;;;37.52;21.16
29121;BME280;16191;49.548;8.658;2022-08-30T14:10:32;100402.31;;;36.89;21.63
29121;BME280;16191;49.548;8.658;2022-08-30T14:13:12;100396.84;;;37.95;20.84
29121;BME280;16191;49.548;8.658;2022-08-30T14:15:39;100395.78;;;37.96;20.74
29121;BME280;16191;49.548;8.658;2022-08-30T14:18:07;100397.47;;;36.91;21.49
29121;BME280;16191;49.548;8.658;2022-08-30T14:20:34;100384.81;;;38.43;20.10
29121;BME280;16191;49.548;8.658;2022-08-30T14:23:04;100390.25;;;38.83;19.60
29121;BME280;16191;49.548;8.658;2022-08-30T14:25:35;100382.16;;;38.08;20.33
29121;BME280;16191;49.548;8.658;2022-08-30T14:28:02;100381.94;;;38.50;19.55
29121;BME280;16191;49.548;8.658;2022-08-30T14:30:29;100377.50;;;38.72;19.76